KDAA/DAA METAR and TAF weather

Enter ICAO airport designator
Station Type Date Time Source
KDAA METAR 2018/04/19 12:58 UTC NOAA

KDAA 191258Z AUTO 30003KT 9SM -DZ M M M RMK AO2 RAE57DZB58 SLPNO RVRNO CHINO RWY32 $


Station Type Date Time Source
KDAA Decoded METAR 2018/04/19 12:58 UTC NOAA

Fort Belvoir, VA, United States (KDAA) 38-43N 077-11W
Apr 19, 2018 - 08:58 AM EDT / 2018.04.19 1258 UTC
Wind: from the WNW (300 degrees) at 3 MPH (3 KT):0
Visibility: 9 mile(s):0
Weather: light drizzle
ob: KDAA 191258Z AUTO 30003KT 9SM -DZ M M M RMK AO2 RAE57DZB58 SLPNO RVRNO CHINO RWY32
cycle: 13

Station Type Date Time Source
KDAA TAF 2018/04/19 09:09 UTC NOAA

TAF KDAA 190900Z 1909/2015 33009KT 9999 SCT024 SCT040 QNH2965INS
BECMG 1912/1913 29015G25KT 9999 BKN040 620405 QNH2961INS
BECMG 1914/1915 29025G35KT 9999 BKN040 620405 510003 QNH2962INS
BECMG 2002/2003 31015G25KT 9999 SCT040 QNH3006INS
BECMG 2004/2005 31009KT 9999 SKC QNH3009INS
BECMG 2010/2011 31015G25KT 9999 SKC QNH3018INS TX16/1918Z TN01/2009Z


Example: see airport list